Altus AFB, Oklahoma
Current Conditions -  °F | °C
As of 9:58 PM on Thursday 18 Dec 2014 (Local Time) from KLTS Reporting Station
Overcast Overcast  
Wind Chill: 37°   Ceiling: 600
Heat Index: 42°   Visibility: 10mi
Dew Point: 42°   Wind: 8mph
Humidity: 100%   Direction: 40°NE
Pressure: 30.18"   Gusts: NA
Location:  34.65°N, 99.28°W
Report Text: KLTS 190358Z 04007KT 10SM BKN006 BKN010 OVC020 06/06 A3018 RMK AO2A SLP225 P0000 T00550055 $
Loading
Personal Weather Stations






























Interactive Weather Map New forecast layout! Learn more

10-Day Weather Forecast

Advertisements
Track Severe Weather on mobile